createdAt,value
2019-02-08T00:00:27.241Z,58.65
2019-02-08T00:01:33.878Z,61.01
2019-02-08T00:02:40.023Z,63.59
2019-02-08T00:03:46.406Z,63.60
2019-02-08T00:04:53.271Z,62.21
2019-02-08T00:05:59.647Z,60.78
2019-02-08T00:07:06.184Z,59.32
2019-02-08T00:08:13.108Z,57.74
2019-02-08T00:09:20.260Z,56.00
2019-02-08T00:10:28.280Z,54.87
2019-02-08T00:11:35.878Z,52.65
2019-02-08T00:12:43.490Z,50.75
2019-02-08T00:13:50.493Z,50.33
2019-02-08T00:14:57.284Z,50.79
2019-02-08T00:16:04.323Z,51.42
2019-02-08T00:17:11.218Z,52.12
2019-02-08T00:18:17.727Z,52.79
2019-02-08T00:19:25.099Z,53.49
2019-02-08T00:20:32.066Z,54.34
2019-02-08T00:21:38.844Z,55.18
2019-02-08T00:22:45.948Z,55.91
2019-02-08T00:23:53.774Z,56.73
2019-02-08T00:25:04.180Z,57.56
2019-02-08T00:26:11.141Z,58.09
2019-02-08T00:27:18.280Z,58.88
2019-02-08T00:28:24.679Z,61.16
2019-02-08T00:29:31.923Z,64.58
2019-02-08T00:30:38.748Z,64.69
2019-02-08T00:31:45.502Z,63.07
2019-02-08T00:32:51.988Z,61.00
2019-02-08T00:33:58.817Z,59.28
2019-02-08T00:35:07.362Z,57.47
2019-02-08T00:36:14.033Z,55.92
2019-02-08T00:37:22.127Z,54.73
2019-02-08T00:38:28.590Z,52.52
2019-02-08T00:39:35.770Z,50.77
2019-02-08T00:40:41.873Z,50.39
2019-02-08T00:41:48.955Z,50.58
2019-02-08T00:42:55.992Z,51.07
2019-02-08T00:44:02.468Z,51.74
2019-02-08T00:45:19.110Z,52.60
2019-02-08T00:46:25.586Z,53.15
2019-02-08T00:47:31.956Z,54.19
2019-02-08T00:48:39.128Z,55.12
2019-02-08T00:49:46.088Z,55.95
2019-02-08T00:50:52.491Z,56.73
2019-02-08T00:52:00.423Z,57.51
2019-02-08T00:53:08.239Z,58.16
2019-02-08T00:54:15.380Z,58.78
2019-02-08T00:55:21.885Z,61.07
2019-02-08T00:56:28.207Z,64.71
2019-02-08T00:57:35.133Z,64.79
2019-02-08T00:58:41.895Z,63.24
2019-02-08T00:59:48.798Z,61.29
2019-02-08T01:00:55.721Z,59.54
2019-02-08T01:02:01.946Z,57.95
2019-02-08T01:03:10.320Z,56.24
2019-02-08T01:04:16.538Z,54.98
2019-02-08T01:05:28.922Z,52.94
2019-02-08T01:06:36.185Z,50.94
2019-02-08T01:07:43.242Z,50.60
2019-02-08T01:08:49.283Z,50.97
2019-02-08T01:09:55.942Z,51.41
2019-02-08T01:11:02.109Z,52.27
2019-02-08T01:12:08.745Z,52.97
2019-02-08T01:13:15.404Z,53.64
2019-02-08T01:14:21.986Z,54.57
2019-02-08T01:15:30.028Z,55.24
2019-02-08T01:16:36.611Z,55.95
2019-02-08T01:17:43.839Z,56.81
2019-02-08T01:18:51.168Z,57.83
2019-02-08T01:19:58.469Z,58.50
2019-02-08T01:21:05.268Z,59.17
2019-02-08T01:22:12.163Z,61.48
2019-02-08T01:23:18.226Z,64.11
2019-02-08T01:24:24.272Z,64.79
2019-02-08T01:25:32.284Z,63.50
2019-02-08T01:26:38.827Z,61.96
2019-02-08T01:27:45.523Z,59.77
2019-02-08T01:28:51.706Z,58.33
2019-02-08T01:29:58.061Z,56.97
2019-02-08T01:31:05.220Z,55.23
2019-02-08T01:32:11.936Z,53.46
2019-02-08T01:33:18.446Z,51.45
2019-02-08T01:34:24.873Z,50.96
2019-02-08T01:35:32.306Z,51.09
2019-02-08T01:36:39.006Z,51.61
2019-02-08T01:37:46.210Z,52.16
2019-02-08T01:38:52.766Z,52.97
2019-02-08T01:39:59.871Z,53.86
2019-02-08T01:41:06.112Z,54.49
2019-02-08T01:42:13.243Z,55.58
2019-02-08T01:43:20.300Z,56.36
2019-02-08T01:44:27.984Z,57.18
2019-02-08T01:45:41.214Z,57.97
2019-02-08T01:46:48.103Z,58.57
2019-02-08T01:47:55.332Z,60.79
2019-02-08T01:49:01.614Z,64.18
2019-02-08T01:50:15.521Z,64.46
2019-02-08T01:51:22.713Z,63.42
2019-02-08T01:52:29.665Z,61.24
2019-02-08T01:53:36.074Z,59.44
2019-02-08T01:54:42.807Z,58.15
2019-02-08T01:55:49.336Z,56.72
2019-02-08T01:56:55.836Z,55.55
2019-02-08T01:58:02.549Z,54.42
2019-02-08T01:59:09.280Z,52.48
2019-02-08T02:00:35.679Z,50.81
2019-02-08T02:01:42.346Z,50.59
2019-02-08T02:02:49.501Z,50.98
2019-02-08T02:03:56.075Z,51.74
2019-02-08T02:05:02.622Z,52.40
2019-02-08T02:06:08.694Z,53.31
2019-02-08T02:07:15.794Z,54.11
2019-02-08T02:08:21.877Z,54.84
2019-02-08T02:09:29.065Z,55.57
2019-02-08T02:10:42.094Z,56.54
2019-02-08T02:11:49.797Z,57.37
2019-02-08T02:12:57.168Z,58.44
2019-02-08T02:14:03.824Z,59.48
2019-02-08T02:15:11.520Z,61.92
2019-02-08T02:16:18.320Z,65.18
2019-02-08T02:17:25.634Z,65.08
2019-02-08T02:18:32.751Z,63.23
2019-02-08T02:19:43.961Z,61.48
2019-02-08T02:20:52.419Z,59.76
2019-02-08T02:21:58.657Z,58.08
2019-02-08T02:23:05.602Z,56.59
2019-02-08T02:24:12.599Z,55.22
2019-02-08T02:25:19.718Z,52.87
2019-02-08T02:26:26.070Z,50.99
2019-02-08T02:27:33.357Z,50.69
2019-02-08T02:28:40.461Z,51.03
2019-02-08T02:29:47.735Z,51.75
2019-02-08T02:30:54.421Z,52.48
2019-02-08T02:32:01.383Z,53.43
2019-02-08T02:33:10.916Z,54.18
2019-02-08T02:34:16.872Z,54.94
2019-02-08T02:35:24.617Z,55.90
2019-02-08T02:36:31.927Z,56.90
2019-02-08T02:37:38.852Z,57.61
2019-02-08T02:38:45.055Z,58.38
2019-02-08T02:39:52.506Z,59.16
2019-02-08T02:40:59.149Z,61.57
2019-02-08T02:42:05.732Z,64.98
2019-02-08T02:43:12.741Z,64.86
2019-02-08T02:44:20.417Z,63.42
2019-02-08T02:45:34.049Z,62.04
2019-02-08T02:46:42.056Z,60.32
2019-02-08T02:47:49.035Z,58.47
2019-02-08T02:48:56.373Z,57.03
2019-02-08T02:50:02.036Z,55.80
2019-02-08T02:51:09.272Z,54.66
2019-02-08T02:52:16.368Z,52.76
2019-02-08T02:53:24.324Z,50.94
2019-02-08T02:54:31.829Z,50.67
2019-02-08T02:55:38.574Z,51.09
2019-02-08T02:56:45.643Z,51.73
2019-02-08T02:57:53.114Z,52.50
2019-02-08T02:59:00.226Z,53.33
2019-02-08T03:00:17.639Z,54.21
2019-02-08T03:01:24.359Z,54.97
2019-02-08T03:02:30.963Z,56.06
2019-02-08T03:03:37.262Z,56.88
2019-02-08T03:04:43.873Z,57.76
2019-02-08T03:05:50.921Z,58.60
2019-02-08T03:06:57.339Z,60.89
2019-02-08T03:08:04.866Z,64.06
2019-02-08T03:09:11.373Z,64.44
2019-02-08T03:10:21.258Z,63.46
2019-02-08T03:11:28.133Z,61.81
2019-02-08T03:12:35.633Z,60.14
2019-02-08T03:13:43.094Z,58.39
2019-02-08T03:14:50.314Z,56.94
2019-02-08T03:15:57.579Z,55.60
2019-02-08T03:17:04.191Z,54.58
2019-02-08T03:18:11.627Z,52.50
2019-02-08T03:19:19.437Z,50.67
2019-02-08T03:20:26.615Z,50.43
2019-02-08T03:21:33.726Z,50.82
2019-02-08T03:22:40.644Z,51.42
2019-02-08T03:23:47.869Z,52.31
2019-02-08T03:24:55.548Z,53.05
2019-02-08T03:26:02.132Z,53.89
2019-02-08T03:27:09.483Z,54.82
2019-02-08T03:28:16.347Z,55.60
2019-02-08T03:29:23.728Z,56.44
2019-02-08T03:30:33.223Z,57.17
2019-02-08T03:31:41.092Z,58.05
2019-02-08T03:32:47.644Z,58.80
2019-02-08T03:33:55.019Z,60.91
2019-02-08T03:35:01.881Z,63.99
2019-02-08T03:36:09.034Z,64.30
2019-02-08T03:37:15.808Z,63.10
2019-02-08T03:38:22.778Z,61.69
2019-02-08T03:39:29.482Z,59.83
2019-02-08T03:40:36.156Z,58.07
2019-02-08T03:41:42.748Z,56.72
2019-02-08T03:42:49.117Z,55.57
2019-02-08T03:43:56.570Z,53.53
2019-02-08T03:45:03.263Z,51.67
2019-02-08T03:46:10.923Z,51.12
2019-02-08T03:47:17.947Z,51.47
2019-02-08T03:48:27.732Z,51.90
2019-02-08T03:49:34.953Z,52.61
2019-02-08T03:50:41.576Z,53.42
2019-02-08T03:51:49.199Z,54.24
2019-02-08T03:52:56.444Z,55.13
2019-02-08T03:54:03.536Z,56.04
2019-02-08T03:55:23.027Z,56.77
2019-02-08T03:56:30.453Z,57.34
2019-02-08T03:57:37.697Z,58.41
2019-02-08T03:58:44.160Z,59.18
2019-02-08T03:59:51.457Z,61.56
2019-02-08T04:01:00.857Z,64.43
2019-02-08T04:02:08.159Z,64.44
2019-02-08T04:03:14.505Z,63.21
2019-02-08T04:04:21.221Z,61.55
2019-02-08T04:05:27.656Z,59.93
2019-02-08T04:06:34.766Z,58.64
2019-02-08T04:07:41.694Z,57.13
2019-02-08T04:08:48.619Z,56.17
2019-02-08T04:09:55.425Z,55.21
2019-02-08T04:11:03.071Z,52.92
2019-02-08T04:12:09.990Z,51.13
2019-02-08T04:13:16.704Z,50.74
2019-02-08T04:14:23.778Z,51.04
2019-02-08T04:15:30.001Z,51.68
2019-02-08T04:16:37.219Z,52.23
2019-02-08T04:17:44.587Z,53.03
2019-02-08T04:18:51.186Z,53.78
2019-02-08T04:19:57.948Z,54.61
2019-02-08T04:21:05.115Z,55.35
2019-02-08T04:22:12.599Z,56.14
2019-02-08T04:23:18.605Z,57.07
2019-02-08T04:24:30.024Z,57.75
2019-02-08T04:25:34.095Z,58.55
2019-02-08T04:26:41.434Z,59.34
2019-02-08T04:27:48.863Z,61.64
2019-02-08T04:28:56.405Z,65.06
2019-02-08T04:30:03.381Z,65.18
2019-02-08T04:31:10.500Z,63.20
2019-02-08T04:32:17.687Z,60.89
2019-02-08T04:33:24.070Z,59.39
2019-02-08T04:34:30.355Z,58.09
2019-02-08T04:35:37.602Z,56.95
2019-02-08T04:36:44.646Z,55.85
2019-02-08T04:37:51.423Z,54.96
2019-02-08T04:38:57.789Z,53.24
2019-02-08T04:40:06.888Z,51.58
2019-02-08T04:41:13.612Z,51.39
2019-02-08T04:42:20.244Z,51.67
2019-02-08T04:43:26.388Z,52.12
2019-02-08T04:44:33.736Z,52.74
2019-02-08T04:45:40.309Z,53.55
2019-02-08T04:46:47.876Z,54.40
2019-02-08T04:47:54.989Z,55.05
2019-02-08T04:49:02.060Z,55.82
2019-02-08T04:50:27.602Z,56.73
2019-02-08T04:51:35.365Z,57.44
2019-02-08T04:52:42.240Z,58.45
2019-02-08T04:53:48.594Z,60.41
2019-02-08T04:54:54.794Z,63.85
2019-02-08T04:56:01.332Z,64.13
2019-02-08T04:57:07.830Z,63.00
2019-02-08T04:58:14.578Z,61.34
2019-02-08T04:59:20.795Z,59.63
2019-02-08T05:00:37.886Z,58.19
2019-02-08T05:01:45.502Z,57.20
2019-02-08T05:02:52.317Z,55.79
2019-02-08T05:03:58.820Z,54.52
2019-02-08T05:05:07.013Z,52.34
2019-02-08T05:06:14.507Z,50.75
2019-02-08T05:07:23.452Z,50.32
2019-02-08T05:08:31.261Z,50.77
2019-02-08T05:09:37.811Z,51.27
2019-02-08T05:10:44.523Z,51.96
2019-02-08T05:11:51.502Z,52.86
2019-02-08T05:12:58.449Z,53.68
2019-02-08T05:14:04.896Z,54.63
2019-02-08T05:15:12.145Z,55.55
2019-02-08T05:16:19.045Z,56.28
2019-02-08T05:17:25.580Z,57.33
2019-02-08T05:18:31.879Z,57.99
2019-02-08T05:19:39.331Z,59.05
2019-02-08T05:20:47.100Z,61.10
2019-02-08T05:21:54.554Z,64.55
2019-02-08T05:23:01.146Z,64.80
2019-02-08T05:24:07.867Z,63.62
2019-02-08T05:25:15.274Z,61.72
2019-02-08T05:26:21.907Z,60.14
2019-02-08T05:27:28.595Z,58.44
2019-02-08T05:28:36.944Z,56.87
2019-02-08T05:29:43.664Z,55.56
2019-02-08T05:30:51.065Z,53.62
2019-02-08T05:31:57.826Z,51.59
2019-02-08T05:33:03.993Z,51.09
2019-02-08T05:34:10.751Z,51.36
2019-02-08T05:35:18.110Z,52.00
2019-02-08T05:36:24.476Z,52.64
2019-02-08T05:37:31.707Z,53.41
2019-02-08T05:38:38.716Z,54.09
2019-02-08T05:39:45.698Z,54.90
2019-02-08T05:40:52.735Z,55.62
2019-02-08T05:41:59.760Z,56.43
2019-02-08T05:43:06.969Z,57.52
2019-02-08T05:44:13.490Z,58.22
2019-02-08T05:45:22.610Z,59.41
2019-02-08T05:46:35.339Z,61.76
2019-02-08T05:47:42.184Z,65.15
2019-02-08T05:48:49.174Z,64.97
2019-02-08T05:49:56.326Z,63.22
2019-02-08T05:51:03.401Z,61.82
2019-02-08T05:52:11.530Z,60.38
2019-02-08T05:53:20.605Z,58.46
2019-02-08T05:54:27.735Z,57.22
2019-02-08T05:55:34.726Z,55.90
2019-02-08T05:56:42.043Z,54.67
2019-02-08T05:57:48.916Z,52.51
2019-02-08T05:58:55.302Z,50.92
2019-02-08T06:00:01.947Z,50.57
2019-02-08T06:01:08.552Z,50.79
2019-02-08T06:02:16.583Z,51.39
2019-02-08T06:03:23.774Z,52.03
2019-02-08T06:04:31.027Z,53.04
2019-02-08T06:05:37.837Z,53.88
2019-02-08T06:06:44.809Z,54.86
2019-02-08T06:07:52.351Z,55.73
2019-02-08T06:09:04.883Z,56.59
2019-02-08T06:10:14.983Z,57.42
2019-02-08T06:11:22.699Z,58.51
2019-02-08T06:12:29.225Z,59.22
2019-02-08T06:13:35.839Z,61.73
2019-02-08T06:14:43.007Z,65.13
2019-02-08T06:15:49.633Z,65.62
2019-02-08T06:16:57.277Z,63.99
2019-02-08T06:18:05.356Z,62.14
2019-02-08T06:19:12.963Z,60.45
2019-02-08T06:20:23.093Z,59.15
2019-02-08T06:21:29.207Z,57.51
2019-02-08T06:22:38.965Z,55.92
2019-02-08T06:23:46.556Z,54.45
2019-02-08T06:24:53.550Z,52.35
2019-02-08T06:26:01.127Z,50.41
2019-02-08T06:27:07.572Z,50.09
2019-02-08T06:28:14.631Z,50.27
2019-02-08T06:29:21.114Z,51.07
2019-02-08T06:30:31.930Z,51.53
2019-02-08T06:31:39.102Z,52.39
2019-02-08T06:32:46.381Z,53.29
2019-02-08T06:33:54.687Z,54.15
2019-02-08T06:35:01.107Z,54.93
2019-02-08T06:36:08.134Z,55.63
2019-02-08T06:37:14.471Z,56.58
2019-02-08T06:38:20.705Z,57.49
2019-02-08T06:39:27.440Z,58.30
2019-02-08T06:40:46.655Z,58.99
2019-02-08T06:41:52.848Z,61.82
2019-02-08T06:42:59.929Z,64.89
2019-02-08T06:44:05.965Z,64.77
2019-02-08T06:45:17.197Z,63.02
2019-02-08T06:46:24.614Z,60.90
2019-02-08T06:47:31.464Z,59.20
2019-02-08T06:48:38.279Z,57.88
2019-02-08T06:49:45.146Z,56.52
2019-02-08T06:50:50.797Z,55.35
2019-02-08T06:51:57.546Z,53.09
2019-02-08T06:53:03.814Z,51.13
2019-02-08T06:54:10.336Z,50.61
2019-02-08T06:55:16.476Z,50.73
2019-02-08T06:56:41.844Z,51.31
2019-02-08T06:57:52.576Z,51.90
2019-02-08T06:59:05.711Z,52.72
2019-02-08T07:00:23.338Z,53.66
2019-02-08T07:01:31.296Z,54.40
2019-02-08T07:02:39.591Z,55.50
2019-02-08T07:03:47.316Z,56.36
2019-02-08T07:05:04.857Z,57.26
2019-02-08T07:06:16.396Z,57.85
2019-02-08T07:07:23.636Z,58.90
2019-02-08T07:08:44.316Z,61.42
2019-02-08T07:09:57.478Z,66.23
2019-02-08T07:11:08.651Z,66.32
2019-02-08T07:12:37.295Z,64.19
2019-02-08T07:13:49.018Z,62.53
2019-02-08T07:15:03.239Z,60.14
2019-02-08T07:16:11.336Z,58.26
2019-02-08T07:17:37.890Z,56.60
2019-02-08T07:18:46.483Z,55.58
2019-02-08T07:19:54.571Z,52.76
2019-02-08T07:21:08.591Z,50.68
2019-02-08T07:22:21.603Z,50.09
2019-02-08T07:23:29.450Z,50.38
2019-02-08T07:24:42.163Z,51.03
2019-02-08T07:25:53.570Z,51.69
2019-02-08T07:27:11.062Z,52.65
2019-02-08T07:28:24.527Z,53.22
2019-02-08T07:29:38.930Z,54.35
2019-02-08T07:31:00.056Z,55.05
2019-02-08T07:32:10.911Z,55.80
2019-02-08T07:33:19.812Z,56.94
2019-02-08T07:34:33.379Z,57.95
2019-02-08T07:35:43.631Z,58.81
2019-02-08T07:36:54.550Z,61.47
2019-02-08T07:38:02.990Z,65.14
2019-02-08T07:39:15.091Z,65.08
2019-02-08T07:40:36.670Z,63.33
2019-02-08T07:41:45.918Z,61.59
2019-02-08T07:42:54.301Z,59.53
2019-02-08T07:44:05.577Z,58.19
2019-02-08T07:45:16.738Z,56.89
2019-02-08T07:46:28.430Z,55.65
2019-02-08T07:47:39.752Z,54.55
2019-02-08T07:49:04.138Z,52.55
2019-02-08T07:50:29.605Z,50.86
2019-02-08T07:51:39.044Z,50.73
2019-02-08T07:52:50.484Z,51.38
2019-02-08T07:54:05.806Z,52.07
2019-02-08T07:55:17.697Z,53.13
2019-02-08T07:56:37.544Z,54.11
2019-02-08T07:57:48.284Z,54.94
2019-02-08T07:59:01.777Z,56.19
2019-02-08T08:00:32.467Z,57.04
2019-02-08T08:01:43.732Z,58.00
2019-02-08T08:02:54.125Z,59.57
2019-02-08T08:04:01.830Z,62.46
2019-02-08T08:05:11.365Z,65.66
2019-02-08T08:06:22.324Z,65.25
2019-02-08T08:07:32.053Z,63.65
2019-02-08T08:08:41.346Z,61.78
2019-02-08T08:09:56.865Z,60.17
2019-02-08T08:11:08.478Z,58.74
2019-02-08T08:12:18.762Z,57.42
2019-02-08T08:13:29.383Z,55.29
2019-02-08T08:14:53.584Z,53.44
2019-02-08T08:16:13.603Z,51.58
2019-02-08T08:17:21.104Z,51.39
2019-02-08T08:18:29.906Z,52.12
2019-02-08T08:19:51.443Z,52.66
2019-02-08T08:21:18.876Z,53.28
2019-02-08T08:22:35.023Z,54.24
2019-02-08T08:23:56.783Z,55.37
2019-02-08T08:25:18.416Z,56.04
2019-02-08T08:26:44.544Z,57.24
2019-02-08T08:27:53.206Z,57.95
2019-02-08T08:29:07.301Z,59.16
2019-02-08T08:30:20.341Z,62.11
2019-02-08T08:31:28.601Z,65.36
2019-02-08T08:32:36.280Z,64.45
2019-02-08T08:33:53.301Z,62.57
2019-02-08T08:35:15.715Z,60.94
2019-02-08T08:45:58.162Z,49.78
2019-02-08T08:47:23.881Z,51.63
2019-02-08T08:48:53.881Z,53.68
2019-02-08T08:50:19.202Z,55.47
2019-02-08T08:51:49.417Z,56.56
2019-02-08T08:53:17.420Z,58.37
2019-02-08T08:55:10.636Z,60.25
2019-02-08T08:56:46.677Z,64.63
2019-02-08T08:58:33.894Z,64.44
2019-02-08T09:00:05.922Z,62.54
2019-02-08T09:01:31.462Z,59.45
2019-02-08T09:03:02.164Z,58.36
2019-02-08T09:04:46.821Z,56.97
2019-02-08T09:06:15.525Z,55.22
2019-02-08T09:07:35.230Z,54.10
2019-02-08T09:09:04.881Z,52.54
2019-02-08T09:10:56.001Z,52.26
2019-02-08T09:12:09.121Z,53.18
2019-02-08T09:13:53.177Z,54.55
2019-02-08T09:15:18.223Z,56.01
2019-02-08T09:17:00.041Z,57.14
2019-02-08T09:18:19.401Z,58.48
2019-02-08T09:19:39.776Z,61.93
2019-02-08T09:21:22.902Z,64.19
2019-02-08T09:22:56.840Z,63.56
2019-02-08T09:24:44.822Z,60.52
2019-02-08T09:26:22.195Z,58.46
2019-02-08T09:28:04.404Z,56.55
2019-02-08T09:29:35.715Z,55.37
2019-02-08T09:31:01.341Z,54.26
2019-02-08T09:32:27.560Z,52.24
2019-02-08T09:33:54.421Z,52.11
2019-02-08T09:35:33.213Z,52.90
2019-02-08T09:37:09.682Z,54.63
2019-02-08T09:38:41.833Z,55.38
2019-02-08T09:40:14.380Z,57.19
2019-02-08T09:41:44.561Z,58.41
2019-02-08T09:43:25.460Z,59.06
2019-02-08T09:45:07.541Z,64.00
2019-02-08T09:46:55.260Z,64.81
2019-02-08T09:48:33.513Z,62.45
2019-02-08T09:50:31.361Z,59.24
2019-02-08T09:52:02.882Z,57.52
2019-02-08T09:53:36.390Z,55.84
2019-02-08T09:55:16.893Z,54.21
2019-02-08T09:56:44.804Z,52.23
2019-02-08T09:58:28.134Z,51.90
2019-02-08T10:00:18.520Z,52.33
2019-02-08T10:01:34.581Z,54.22
2019-02-08T10:03:19.444Z,56.48
2019-02-08T10:05:04.223Z,57.57
2019-02-08T10:06:30.853Z,58.60
2019-02-08T10:08:17.142Z,61.89
2019-02-08T10:09:49.721Z,63.70
2019-02-08T10:11:23.104Z,61.59
2019-02-08T10:13:19.982Z,59.18
2019-02-08T10:15:01.295Z,58.00
2019-02-08T10:16:43.322Z,55.45
2019-02-08T10:18:30.421Z,54.60
2019-02-08T10:20:06.395Z,52.05
2019-02-08T10:21:35.793Z,52.29
2019-02-08T10:23:11.194Z,53.00
2019-02-08T10:24:54.240Z,54.00
2019-02-08T10:26:43.141Z,54.89
2019-02-08T10:28:40.821Z,57.36
2019-02-08T10:30:35.597Z,57.38
2019-02-08T10:32:07.991Z,58.96
2019-02-08T10:34:07.777Z,63.39
2019-02-08T10:36:00.523Z,64.45
2019-02-08T10:38:16.600Z,61.81
2019-02-08T10:39:57.830Z,58.55
2019-02-08T10:41:33.928Z,56.85
2019-02-08T10:43:25.361Z,54.80
2019-02-08T10:44:47.672Z,51.84
2019-02-08T10:46:28.540Z,51.59
2019-02-08T10:49:51.720Z,54.43
2019-02-08T10:51:39.301Z,55.30
2019-02-08T10:53:23.742Z,57.17
2019-02-08T10:55:09.836Z,58.50
2019-02-08T10:56:39.380Z,58.81
2019-02-08T10:58:22.363Z,62.75
2019-02-08T11:00:14.662Z,63.20
2019-02-08T11:02:08.501Z,61.52
2019-02-08T11:03:54.776Z,58.43
2019-02-08T11:05:25.220Z,56.08
2019-02-08T11:07:03.938Z,54.65
2019-02-08T11:08:52.656Z,52.06
2019-02-08T11:10:44.123Z,52.24
2019-02-08T11:12:18.958Z,53.35
2019-02-08T11:15:38.181Z,56.66
2019-02-08T11:17:19.386Z,57.39
2019-02-08T11:19:02.791Z,58.58
2019-02-08T11:20:10.561Z,62.41
2019-02-08T11:21:17.197Z,62.78
2019-02-08T11:22:24.761Z,61.47
2019-02-08T11:23:32.462Z,59.92
2019-02-08T11:24:39.661Z,58.10
2019-02-08T11:25:47.974Z,56.03
2019-02-08T11:26:56.155Z,54.86
2019-02-08T11:28:05.774Z,53.25
2019-02-08T11:29:14.155Z,52.14
2019-02-08T11:30:21.073Z,52.40
2019-02-08T11:31:28.876Z,52.42
2019-02-08T11:32:43.257Z,53.70
2019-02-08T11:33:42.390Z,55.01
2019-02-08T11:34:49.260Z,55.62
2019-02-08T11:35:56.524Z,56.63
2019-02-08T11:37:02.984Z,56.36
2019-02-08T11:38:10.722Z,57.62
2019-02-08T11:39:17.753Z,59.18
2019-02-08T11:40:26.774Z,61.13
2019-02-08T11:41:34.624Z,62.85
2019-02-08T11:42:42.054Z,61.83
2019-02-08T11:43:49.635Z,60.29
2019-02-08T11:44:55.660Z,58.65
2019-02-08T11:46:01.621Z,57.24
2019-02-08T11:47:07.348Z,56.22
2019-02-08T11:48:13.650Z,54.87
2019-02-08T11:49:20.147Z,53.42
2019-02-08T11:50:29.284Z,52.42
2019-02-08T11:51:35.418Z,52.72
2019-02-08T11:52:41.362Z,53.35
2019-02-08T11:53:47.397Z,54.35
2019-02-08T11:54:53.754Z,54.82
2019-02-08T11:56:01.887Z,55.18
2019-02-08T11:57:08.073Z,56.87
2019-02-08T11:58:16.221Z,57.64
2019-02-08T11:59:22.507Z,57.79
2019-02-08T12:00:40.322Z,59.16
2019-02-08T12:01:53.641Z,61.28
2019-02-08T12:03:00.606Z,63.34
2019-02-08T12:04:06.904Z,61.82
2019-02-08T12:05:12.553Z,60.44
2019-02-08T12:06:18.583Z,57.96
2019-02-08T12:07:25.896Z,56.51
2019-02-08T12:08:31.623Z,56.20
2019-02-08T12:09:38.241Z,55.03
2019-02-08T12:11:06.442Z,53.48
2019-02-08T12:12:12.382Z,52.49
2019-02-08T12:13:19.214Z,53.15
2019-02-08T12:14:25.377Z,53.39
2019-02-08T12:15:31.902Z,54.12
2019-02-08T12:16:39.680Z,54.80
2019-02-08T12:17:46.220Z,55.60
2019-02-08T12:18:52.301Z,56.66
2019-02-08T12:19:58.014Z,57.38
2019-02-08T12:21:04.360Z,58.43
2019-02-08T12:22:11.874Z,59.57
2019-02-08T12:23:19.154Z,61.79
2019-02-08T12:24:25.001Z,61.69
2019-02-08T12:25:31.576Z,59.74
2019-02-08T12:26:38.735Z,58.44
2019-02-08T12:29:05.754Z,55.57
2019-02-08T12:30:28.055Z,54.14
2019-02-08T12:31:35.274Z,52.36
2019-02-08T12:32:42.463Z,51.93
2019-02-08T12:33:48.603Z,51.92
2019-02-08T12:34:54.400Z,52.52
2019-02-08T12:36:02.967Z,53.15
2019-02-08T12:37:10.031Z,53.94
2019-02-08T12:38:17.697Z,55.21
2019-02-08T12:39:24.974Z,56.78
2019-02-08T12:40:32.774Z,56.53
2019-02-08T12:41:38.880Z,57.55
2019-02-08T12:42:45.080Z,58.21
2019-02-08T12:43:51.693Z,58.54
2019-02-08T12:44:57.731Z,59.58
2019-02-08T12:46:04.143Z,61.86
2019-02-08T12:47:10.700Z,63.89
2019-02-08T12:48:16.453Z,62.85
2019-02-08T12:49:22.713Z,60.17
2019-02-08T12:50:30.740Z,59.44
2019-02-08T12:51:42.870Z,57.63
2019-02-08T12:52:49.622Z,56.01
2019-02-08T12:53:55.721Z,54.92
2019-02-08T12:55:01.908Z,53.39
2019-02-08T12:56:08.861Z,51.88
2019-02-08T12:57:14.956Z,51.74
2019-02-08T12:58:22.760Z,52.50
2019-02-08T12:59:28.495Z,53.05
2019-02-08T13:00:35.364Z,53.77
2019-02-08T13:01:44.062Z,54.29
2019-02-08T13:02:49.874Z,55.65
2019-02-08T13:03:55.961Z,56.11
2019-02-08T13:05:02.041Z,57.44
2019-02-08T13:06:09.741Z,57.97
2019-02-08T13:07:15.436Z,58.66
2019-02-08T13:08:21.373Z,59.33
2019-02-08T13:09:27.123Z,61.10
2019-02-08T13:10:34.397Z,62.86
2019-02-08T13:11:42.080Z,62.45
2019-02-08T13:12:48.453Z,60.51
2019-02-08T13:13:54.200Z,58.25
2019-02-08T13:15:00.277Z,56.75
2019-02-08T13:16:06.557Z,55.77
2019-02-08T13:17:12.634Z,54.87
2019-02-08T13:18:19.181Z,53.23
2019-02-08T13:19:25.195Z,51.79
2019-02-08T13:20:31.083Z,51.51
2019-02-08T13:21:37.164Z,52.32
2019-02-08T13:22:43.323Z,53.19
2019-02-08T13:23:49.300Z,53.18
2019-02-08T13:24:55.861Z,54.35
2019-02-08T13:26:03.079Z,55.90
2019-02-08T13:27:08.909Z,56.21
2019-02-08T13:28:14.660Z,57.62
2019-02-08T13:29:20.402Z,57.59
2019-02-08T13:30:34.421Z,58.70
2019-02-08T13:31:40.361Z,59.09
2019-02-08T13:32:46.220Z,61.19
2019-02-08T13:33:52.373Z,63.42
2019-02-08T13:35:00.133Z,63.05
2019-02-08T13:36:10.234Z,61.09
2019-02-08T13:37:17.189Z,59.50
2019-02-08T13:38:24.560Z,57.69
2019-02-08T13:39:31.018Z,55.91
2019-02-08T13:40:38.581Z,54.40
2019-02-08T13:41:44.363Z,52.35
2019-02-08T13:42:53.541Z,51.41
2019-02-08T13:44:00.848Z,51.67
2019-02-08T13:45:11.941Z,52.37
2019-02-08T13:46:18.041Z,53.11
2019-02-08T13:47:24.214Z,53.41
2019-02-08T13:48:30.174Z,54.46
2019-02-08T13:49:37.441Z,55.48
2019-02-08T13:50:44.943Z,56.70
2019-02-08T13:51:51.690Z,57.01
2019-02-08T13:52:58.943Z,58.16
2019-02-08T13:54:06.560Z,58.14
2019-02-08T13:55:33.375Z,58.95
2019-02-08T13:56:40.844Z,62.67
2019-02-08T13:57:46.922Z,63.77
2019-02-08T13:58:52.990Z,62.70
2019-02-08T13:59:59.097Z,61.28
2019-02-08T14:01:05.473Z,58.84
2019-02-08T14:02:11.674Z,56.94
2019-02-08T14:03:19.101Z,55.97
2019-02-08T14:04:25.233Z,54.21
2019-02-08T14:05:30.981Z,52.74
2019-02-08T14:06:38.263Z,51.53
2019-02-08T14:07:44.422Z,51.15
2019-02-08T14:08:51.286Z,51.72
2019-02-08T14:09:58.025Z,52.62
2019-02-08T14:11:06.393Z,53.70
2019-02-08T14:12:12.362Z,54.49
2019-02-08T14:13:18.760Z,55.38
2019-02-08T14:14:25.255Z,55.91
2019-02-08T14:15:32.081Z,56.84
2019-02-08T14:16:38.501Z,57.71
2019-02-08T14:18:06.182Z,58.51
2019-02-08T14:19:12.499Z,59.12
2019-02-08T14:20:25.940Z,61.21
2019-02-08T14:21:32.501Z,63.86
2019-02-08T14:22:40.561Z,62.49
2019-02-08T14:23:47.100Z,60.96
2019-02-08T14:24:53.941Z,59.22
2019-02-08T14:26:00.064Z,57.94
2019-02-08T14:27:08.588Z,55.80
2019-02-08T14:28:15.284Z,54.60
2019-02-08T14:29:21.033Z,52.67
2019-02-08T14:30:33.721Z,51.38
2019-02-08T14:31:39.653Z,51.39
2019-02-08T14:32:46.081Z,53.02
2019-02-08T14:33:54.822Z,53.19
2019-02-08T14:35:08.862Z,54.13
2019-02-08T14:36:15.905Z,54.85
2019-02-08T14:37:42.993Z,55.35
2019-02-08T14:38:49.627Z,56.48
2019-02-08T14:39:56.217Z,58.22
2019-02-08T14:41:02.925Z,59.22
2019-02-08T14:42:09.593Z,59.93
2019-02-08T14:43:15.396Z,62.16
2019-02-08T14:44:21.583Z,63.92
2019-02-08T14:45:48.084Z,63.11
2019-02-08T14:46:54.405Z,61.17
2019-02-08T14:48:00.284Z,58.84
2019-02-08T14:49:10.714Z,57.11
2019-02-08T14:50:24.666Z,55.61
2019-02-08T14:51:33.431Z,54.39
2019-02-08T14:52:44.581Z,52.97
2019-02-08T14:54:05.897Z,51.57
2019-02-08T14:55:11.461Z,51.68
2019-02-08T14:56:17.462Z,53.26
2019-02-08T14:57:23.301Z,53.35
2019-02-08T14:58:29.060Z,54.45
2019-02-08T14:59:35.585Z,55.30
2019-02-08T15:00:42.157Z,56.00
2019-02-08T15:03:04.857Z,57.66
2019-02-08T15:04:24.445Z,58.58
2019-02-08T15:05:35.322Z,59.02
2019-02-08T15:06:46.604Z,61.35
2019-02-08T15:07:54.386Z,64.25
2019-02-08T15:09:03.699Z,63.43
2019-02-08T15:10:27.462Z,61.31
2019-02-08T15:11:34.703Z,59.32
2019-02-08T15:12:40.842Z,57.19
2019-02-08T15:13:47.661Z,55.67
2019-02-08T15:14:54.202Z,54.63
2019-02-08T15:16:00.923Z,53.10
2019-02-08T15:17:08.556Z,51.94
2019-02-08T15:18:14.692Z,52.05
2019-02-08T15:19:21.802Z,52.44
2019-02-08T15:20:33.493Z,53.23
2019-02-08T15:21:40.467Z,54.04
2019-02-08T15:22:46.641Z,55.35
2019-02-08T15:23:53.094Z,56.30
2019-02-08T15:25:02.764Z,57.22
2019-02-08T15:26:09.270Z,58.02
2019-02-08T15:27:16.141Z,58.88
2019-02-08T15:28:23.168Z,61.12
2019-02-08T15:29:29.706Z,64.04
2019-02-08T15:30:38.128Z,63.63
2019-02-08T15:31:45.068Z,61.82
2019-02-08T15:32:51.566Z,60.38
2019-02-08T15:33:57.673Z,58.82
2019-02-08T15:35:04.160Z,57.16
2019-02-08T15:36:12.702Z,55.68
2019-02-08T15:37:18.886Z,54.92
2019-02-08T15:38:26.729Z,53.20
2019-02-08T15:39:33.960Z,52.10
2019-02-08T15:40:44.272Z,52.12
2019-02-08T15:41:51.600Z,52.70